createdAt,value
2022-12-05T00:01:13.431Z,10.73
2022-12-05T00:03:41.055Z,10.63
2022-12-05T00:06:08.771Z,9.98
2022-12-05T00:08:36.347Z,10.85
2022-12-05T00:11:03.909Z,10.35
2022-12-05T00:13:31.482Z,10.55
2022-12-05T00:15:59.018Z,10.52
2022-12-05T00:18:26.755Z,10.02
2022-12-05T00:20:54.290Z,11.32
2022-12-05T00:23:21.822Z,10.82
2022-12-05T00:25:49.412Z,11.65
2022-12-05T00:28:17.003Z,10.27
2022-12-05T00:30:44.620Z,11.18
2022-12-05T00:33:13.148Z,11.20
2022-12-05T00:35:40.671Z,11.77
2022-12-05T00:38:08.213Z,12.13
2022-12-05T00:40:36.699Z,10.57
2022-12-05T00:43:04.259Z,11.25
2022-12-05T00:45:31.906Z,11.43
2022-12-05T00:47:59.490Z,11.02
2022-12-05T00:50:27.090Z,10.45
2022-12-05T00:52:54.633Z,11.25
2022-12-05T00:55:22.194Z,11.80
2022-12-05T00:57:49.729Z,10.93
2022-12-05T01:00:17.597Z,11.73
2022-12-05T01:02:45.323Z,11.82
2022-12-05T01:05:12.918Z,11.95
2022-12-05T01:07:40.542Z,11.82
2022-12-05T01:10:08.395Z,10.80
2022-12-05T01:12:35.922Z,10.98
2022-12-05T01:15:03.558Z,12.18
2022-12-05T01:17:31.154Z,11.18
2022-12-05T01:19:59.096Z,11.40
2022-12-05T01:22:26.858Z,11.10
2022-12-05T01:24:54.443Z,11.05
2022-12-05T01:27:21.987Z,12.05
2022-12-05T01:29:49.541Z,11.50
2022-12-05T01:32:17.165Z,11.75
2022-12-05T01:34:44.734Z,12.15
2022-12-05T01:37:12.304Z,10.75
2022-12-05T01:39:39.834Z,10.65
2022-12-05T01:42:07.374Z,12.05
2022-12-05T01:44:34.895Z,11.38
2022-12-05T01:47:02.462Z,12.13
2022-12-05T01:49:29.974Z,11.82
2022-12-05T01:52:00.397Z,11.98
2022-12-05T01:54:28.198Z,12.38
2022-12-05T01:57:01.058Z,12.40
2022-12-05T01:59:37.161Z,11.90
2022-12-05T02:02:05.336Z,12.05
2022-12-05T02:04:36.526Z,11.68
2022-12-05T02:07:04.064Z,11.38
2022-12-05T02:09:31.602Z,11.52
2022-12-05T02:12:01.550Z,12.65
2022-12-05T02:14:31.888Z,11.18
2022-12-05T02:17:19.670Z,12.82
2022-12-05T02:19:50.226Z,11.85
2022-12-05T02:22:32.742Z,11.77
2022-12-05T02:25:12.368Z,12.20
2022-12-05T02:28:09.446Z,11.75
2022-12-05T02:30:42.738Z,11.82
2022-12-05T02:33:29.126Z,11.57
2022-12-05T02:36:08.246Z,11.15
2022-12-05T02:38:42.003Z,12.23
2022-12-05T02:41:21.508Z,11.43
2022-12-05T02:43:55.053Z,11.70
2022-12-05T02:46:24.209Z,12.52
2022-12-05T02:48:54.061Z,12.52
2022-12-05T02:51:22.989Z,11.70
2022-12-05T02:53:51.622Z,11.60
2022-12-05T02:56:19.653Z,11.85
2022-12-05T02:58:52.753Z,12.43
2022-12-05T03:01:22.384Z,12.15
2022-12-05T03:03:49.990Z,12.13
2022-12-05T03:06:28.674Z,12.90
2022-12-05T03:08:58.914Z,12.73
2022-12-05T03:11:27.115Z,12.57
2022-12-05T03:13:59.426Z,13.43
2022-12-05T03:16:30.067Z,13.68
2022-12-05T03:19:00.331Z,12.70
2022-12-05T03:21:32.149Z,12.50
2022-12-05T03:26:38.531Z,12.35
2022-12-05T03:29:21.386Z,12.02
2022-12-05T03:31:55.513Z,12.85
2022-12-05T03:34:46.190Z,13.00
2022-12-05T03:37:19.190Z,13.20
2022-12-05T03:39:49.074Z,12.73
2022-12-05T03:42:18.889Z,13.07
2022-12-05T03:44:58.839Z,13.98
2022-12-05T03:47:35.734Z,11.52
2022-12-05T03:50:23.528Z,11.73
2022-12-05T03:53:20.442Z,11.65
2022-12-05T03:55:55.385Z,11.57
2022-12-05T03:58:34.083Z,10.75
2022-12-05T04:01:02.347Z,11.77
2022-12-05T04:03:39.592Z,13.07
2022-12-05T04:06:13.116Z,12.40
2022-12-05T04:08:48.072Z,12.90
2022-12-05T04:11:17.704Z,11.98
2022-12-05T04:13:53.029Z,12.70
2022-12-05T04:16:42.247Z,12.73
2022-12-05T04:19:14.019Z,10.90
2022-12-05T04:24:33.404Z,11.05
2022-12-05T04:27:07.177Z,11.48
2022-12-05T04:29:41.317Z,11.60
2022-12-05T04:32:11.696Z,11.85
2022-12-05T04:34:39.483Z,10.55
2022-12-05T04:37:15.568Z,11.80
2022-12-05T04:39:49.638Z,11.43
2022-12-05T04:42:22.501Z,10.90
2022-12-05T04:45:00.145Z,11.10
2022-12-05T04:47:31.642Z,11.38
2022-12-05T04:49:59.852Z,11.90
2022-12-05T04:52:28.866Z,11.13
2022-12-05T04:55:03.234Z,11.27
2022-12-05T04:57:34.469Z,10.88
2022-12-05T05:00:02.122Z,11.77
2022-12-05T05:02:33.457Z,12.80
2022-12-05T05:05:02.331Z,12.13
2022-12-05T05:07:29.931Z,12.70
2022-12-05T05:09:58.137Z,11.95
2022-12-05T05:12:25.943Z,12.35
2022-12-05T05:14:53.550Z,11.13
2022-12-05T05:17:21.140Z,11.48
2022-12-05T05:19:48.753Z,11.38
2022-12-05T05:22:16.313Z,12.70
2022-12-05T05:24:43.858Z,11.63
2022-12-05T05:27:11.403Z,12.00
2022-12-05T05:29:38.946Z,11.68
2022-12-05T05:32:06.509Z,12.25
2022-12-05T05:34:34.129Z,11.25
2022-12-05T05:37:01.670Z,11.48
2022-12-05T05:39:29.704Z,10.73
2022-12-05T05:41:57.240Z,11.02
2022-12-05T05:44:24.775Z,12.00
2022-12-05T05:46:52.374Z,11.07
2022-12-05T05:49:19.957Z,11.88
2022-12-05T05:51:47.488Z,11.40
2022-12-05T05:54:15.085Z,11.85
2022-12-05T05:56:42.724Z,12.10
2022-12-05T05:59:10.295Z,11.43
2022-12-05T06:01:37.886Z,11.85
2022-12-05T06:04:05.546Z,11.65
2022-12-05T06:06:33.232Z,11.50
2022-12-05T06:09:00.814Z,11.13
2022-12-05T06:11:29.126Z,10.77
2022-12-05T06:13:57.572Z,11.02
2022-12-05T06:16:25.304Z,11.75
2022-12-05T06:18:53.495Z,10.80
2022-12-05T06:21:21.323Z,10.50
2022-12-05T06:23:49.114Z,10.85
2022-12-05T06:26:18.409Z,11.68
2022-12-05T06:28:46.221Z,11.82
2022-12-05T06:31:16.056Z,12.88
2022-12-05T06:33:44.113Z,11.73
2022-12-05T06:36:14.180Z,10.95
2022-12-05T06:38:42.416Z,11.60
2022-12-05T06:41:15.437Z,11.80
2022-12-05T06:43:43.283Z,12.68
2022-12-05T06:46:11.899Z,12.70
2022-12-05T06:48:39.978Z,12.88
2022-12-05T06:51:10.099Z,12.70
2022-12-05T06:53:37.761Z,12.30
2022-12-05T06:56:08.078Z,12.68
2022-12-05T06:58:35.632Z,12.43
2022-12-05T07:01:22.325Z,12.38
2022-12-05T07:03:50.407Z,12.07
2022-12-05T07:06:18.131Z,11.60
2022-12-05T07:08:45.674Z,12.18
2022-12-05T07:11:13.325Z,11.25
2022-12-05T07:13:40.885Z,10.60
2022-12-05T07:16:08.644Z,11.30
2022-12-05T07:18:37.058Z,11.45
2022-12-05T07:21:12.934Z,11.60
2022-12-05T07:23:41.687Z,11.38
2022-12-05T07:26:10.317Z,11.30
2022-12-05T07:28:37.857Z,11.23
2022-12-05T07:31:06.975Z,11.30
2022-12-05T07:33:34.526Z,10.95
2022-12-05T07:36:02.892Z,11.30
2022-12-05T07:38:30.649Z,10.90
2022-12-05T07:40:58.533Z,10.68
2022-12-05T07:43:26.186Z,11.32
2022-12-05T07:45:53.794Z,11.43
2022-12-05T07:48:21.468Z,9.73
2022-12-05T07:50:49.166Z,11.20
2022-12-05T07:53:16.741Z,10.52
2022-12-05T07:55:44.381Z,10.30
2022-12-05T07:58:12.054Z,10.52
2022-12-05T08:00:39.610Z,10.10
2022-12-05T08:03:07.193Z,10.05
2022-12-05T08:05:35.228Z,10.27
2022-12-05T08:08:02.985Z,9.65
2022-12-05T08:10:30.557Z,10.05
2022-12-05T08:12:59.117Z,9.88
2022-12-05T08:15:26.649Z,10.68
2022-12-05T08:17:55.344Z,11.43
2022-12-05T08:20:23.154Z,10.25
2022-12-05T08:22:53.307Z,10.23
2022-12-05T08:25:21.060Z,10.77
2022-12-05T08:27:48.751Z,10.45
2022-12-05T08:30:16.289Z,10.30
2022-12-05T08:32:43.918Z,10.02
2022-12-05T08:35:11.524Z,10.52
2022-12-05T08:37:39.175Z,10.07
2022-12-05T08:40:07.082Z,11.43
2022-12-05T08:42:34.652Z,11.32
2022-12-05T08:45:02.732Z,10.55
2022-12-05T08:47:32.491Z,10.23
2022-12-05T08:50:00.672Z,10.98
2022-12-05T08:52:28.495Z,10.07
2022-12-05T08:54:56.343Z,10.32
2022-12-05T08:57:24.159Z,10.80
2022-12-05T08:59:51.707Z,10.75
2022-12-05T09:02:19.483Z,10.45
2022-12-05T09:04:54.086Z,10.60
2022-12-05T09:07:22.011Z,10.02
2022-12-05T09:09:49.704Z,10.07
2022-12-05T09:12:17.276Z,10.30
2022-12-05T09:14:44.993Z,9.75
2022-12-05T09:17:12.539Z,10.50
2022-12-05T09:19:40.205Z,9.60
2022-12-05T09:22:07.746Z,10.38
2022-12-05T09:24:35.357Z,9.55
2022-12-05T09:27:02.967Z,10.48
2022-12-05T09:29:31.483Z,10.10
2022-12-05T09:31:59.083Z,10.52
2022-12-05T09:34:27.153Z,10.20
2022-12-05T09:37:10.167Z,10.60
2022-12-05T09:39:44.110Z,10.52
2022-12-05T09:42:20.964Z,10.05
2022-12-05T09:44:57.952Z,10.07
2022-12-05T09:47:29.187Z,9.77
2022-12-05T09:50:35.542Z,9.57
2022-12-05T09:53:05.657Z,10.05
2022-12-05T09:55:38.788Z,9.70
2022-12-05T09:58:13.768Z,10.45
2022-12-05T10:00:41.548Z,10.52
2022-12-05T10:03:27.885Z,10.18
2022-12-05T10:06:02.227Z,10.20
2022-12-05T10:08:34.300Z,9.90
2022-12-05T10:11:04.253Z,11.18
2022-12-05T10:13:40.378Z,10.27
2022-12-05T10:16:17.772Z,10.50
2022-12-05T10:18:54.422Z,10.77
2022-12-05T10:21:31.218Z,9.75
2022-12-05T10:24:00.177Z,10.07
2022-12-05T10:26:33.446Z,9.55
2022-12-05T10:29:01.104Z,10.18
2022-12-05T10:31:31.020Z,10.77
2022-12-05T10:34:06.943Z,10.15
2022-12-05T10:36:34.761Z,10.45
2022-12-05T10:39:05.742Z,10.02
2022-12-05T10:41:35.905Z,10.55
2022-12-05T10:44:04.792Z,10.30
2022-12-05T10:46:32.580Z,9.18
2022-12-05T10:49:00.215Z,10.63
2022-12-05T10:51:34.202Z,9.73
2022-12-05T10:54:40.636Z,10.10
2022-12-05T10:57:21.958Z,10.32
2022-12-05T10:59:49.565Z,9.90
2022-12-05T11:02:38.874Z,9.32
2022-12-05T11:05:06.775Z,9.32
2022-12-05T11:07:44.533Z,9.95
2022-12-05T11:10:31.025Z,9.10
2022-12-05T11:12:59.503Z,9.02
2022-12-05T11:15:29.481Z,9.80
2022-12-05T11:17:58.442Z,9.55
2022-12-05T11:20:26.002Z,9.40
2022-12-05T11:22:55.006Z,8.90
2022-12-05T11:25:28.772Z,9.77
2022-12-05T11:28:00.892Z,8.52
2022-12-05T11:30:29.776Z,9.95
2022-12-05T11:33:16.096Z,8.98
2022-12-05T11:35:43.706Z,8.82
2022-12-05T11:38:13.046Z,9.18
2022-12-05T11:41:00.550Z,9.18
2022-12-05T11:43:28.048Z,10.00
2022-12-05T11:46:07.730Z,9.10
2022-12-05T11:48:41.629Z,9.63
2022-12-05T11:51:12.018Z,9.10
2022-12-05T11:54:00.889Z,9.25
2022-12-05T11:56:38.219Z,8.27
2022-12-05T11:59:11.764Z,8.73
2022-12-05T12:01:57.971Z,8.70
2022-12-05T12:04:40.729Z,8.90
2022-12-05T12:07:09.232Z,8.57
2022-12-05T12:09:56.809Z,8.35
2022-12-05T12:12:24.554Z,9.40
2022-12-05T12:15:04.039Z,9.23
2022-12-05T12:17:39.095Z,8.57
2022-12-05T12:20:22.407Z,8.80
2022-12-05T12:23:09.079Z,8.60
2022-12-05T12:25:43.380Z,8.52
2022-12-05T12:28:27.485Z,8.10
2022-12-05T12:31:13.170Z,8.10
2022-12-05T12:33:59.753Z,7.75
2022-12-05T12:36:46.608Z,7.60
2022-12-05T12:39:14.233Z,7.38
2022-12-05T12:41:48.099Z,7.28
2022-12-05T12:44:15.616Z,7.85
2022-12-05T12:47:00.066Z,6.30
2022-12-05T12:49:40.713Z,6.47
2022-12-05T12:52:16.555Z,6.70
2022-12-05T12:55:05.652Z,6.90
2022-12-05T12:57:52.092Z,6.68
2022-12-05T13:00:38.410Z,6.63
2022-12-05T13:03:13.253Z,6.00
2022-12-05T13:05:47.410Z,5.70
2022-12-05T13:08:27.465Z,5.13
2022-12-05T13:10:56.350Z,5.55
2022-12-05T13:13:26.868Z,4.72
2022-12-05T13:15:56.879Z,5.15
2022-12-05T13:18:25.279Z,5.47
2022-12-05T13:21:00.236Z,4.85
2022-12-05T13:23:29.638Z,4.35
2022-12-05T13:25:58.581Z,4.22
2022-12-05T13:28:31.036Z,4.68
2022-12-05T13:31:03.874Z,3.78
2022-12-05T13:33:43.879Z,4.30
2022-12-05T13:36:37.906Z,4.53
2022-12-05T13:39:25.935Z,3.88
2022-12-05T13:42:13.950Z,4.88
2022-12-05T13:44:52.420Z,3.75
2022-12-05T13:47:29.148Z,3.45
2022-12-05T13:50:01.106Z,3.13
2022-12-05T13:52:31.262Z,3.38
2022-12-05T13:55:01.425Z,3.30
2022-12-05T13:57:41.056Z,3.47
2022-12-05T14:00:08.711Z,3.10
2022-12-05T14:02:45.962Z,3.30
2022-12-05T14:05:19.693Z,2.92
2022-12-05T14:07:48.358Z,3.10
2022-12-05T14:10:36.380Z,3.00
2022-12-05T14:13:25.222Z,2.97
2022-12-05T14:15:54.495Z,3.10
2022-12-05T14:18:41.840Z,3.85
2022-12-05T14:21:09.580Z,3.10
2022-12-05T14:23:55.949Z,3.22
2022-12-05T14:26:49.116Z,3.20
2022-12-05T14:29:35.435Z,3.63
2022-12-05T14:32:22.329Z,3.28
2022-12-05T14:34:53.050Z,3.40
2022-12-05T14:37:26.474Z,3.40
2022-12-05T14:39:59.567Z,3.38
2022-12-05T14:42:33.166Z,2.72
2022-12-05T14:45:02.316Z,3.00
2022-12-05T14:47:31.338Z,2.72
2022-12-05T14:50:02.450Z,3.42
2022-12-05T14:52:31.812Z,2.83
2022-12-05T14:55:12.131Z,2.90
2022-12-05T14:57:46.578Z,3.53
2022-12-05T15:00:20.580Z,3.25
2022-12-05T15:02:49.473Z,3.47
2022-12-05T15:05:16.998Z,2.65
2022-12-05T15:07:44.893Z,3.25
2022-12-05T15:10:17.643Z,3.10
2022-12-05T15:12:45.158Z,3.38
2022-12-05T15:15:13.526Z,3.35
2022-12-05T15:17:45.116Z,3.28
2022-12-05T15:20:18.132Z,3.25
2022-12-05T15:22:45.710Z,3.33
2022-12-05T15:25:21.569Z,3.25
2022-12-05T15:27:53.602Z,3.40
2022-12-05T15:30:21.143Z,3.58
2022-12-05T15:32:48.705Z,3.45
2022-12-05T15:35:16.824Z,3.60
2022-12-05T15:37:44.336Z,3.60
2022-12-05T15:40:17.530Z,3.28
2022-12-05T15:42:46.439Z,3.40
2022-12-05T15:45:14.552Z,3.47
2022-12-05T15:47:42.732Z,3.88
2022-12-05T15:50:18.690Z,3.58
2022-12-05T15:52:46.341Z,3.40
2022-12-05T15:55:20.260Z,3.53
2022-12-05T15:57:50.574Z,3.70
2022-12-05T16:00:19.391Z,3.58
2022-12-05T16:03:07.361Z,3.47
2022-12-05T16:05:39.324Z,3.60
2022-12-05T16:08:08.409Z,4.15
2022-12-05T16:10:36.374Z,4.15
2022-12-05T16:13:05.959Z,4.43
2022-12-05T16:15:34.005Z,4.78
2022-12-05T16:18:03.029Z,4.25
2022-12-05T16:20:32.624Z,4.57
2022-12-05T16:23:04.623Z,4.68
2022-12-05T16:25:33.952Z,5.40
2022-12-05T16:28:16.130Z,4.47
2022-12-05T16:31:00.346Z,4.88
2022-12-05T16:33:29.351Z,5.95
2022-12-05T16:35:57.341Z,5.80
2022-12-05T16:38:26.113Z,7.47
2022-12-05T16:40:55.467Z,8.50
2022-12-05T16:43:32.400Z,4.13
2022-12-05T16:46:00.638Z,4.32
2022-12-05T16:48:30.093Z,5.15
2022-12-05T16:51:16.480Z,4.43
2022-12-05T16:53:54.483Z,4.32
2022-12-05T16:56:25.102Z,4.20
2022-12-05T16:58:52.844Z,4.13
2022-12-05T17:01:22.358Z,4.30
2022-12-05T17:03:50.419Z,4.45
2022-12-05T17:06:24.083Z,4.03
2022-12-05T17:08:52.047Z,3.63
2022-12-05T17:11:22.114Z,4.40
2022-12-05T17:13:50.342Z,5.63
2022-12-05T17:16:18.372Z,6.22
2022-12-05T17:18:46.192Z,5.70
2022-12-05T17:21:16.793Z,4.70
2022-12-05T17:23:47.757Z,3.85
2022-12-05T17:26:17.239Z,3.63
2022-12-05T17:28:44.783Z,3.67
2022-12-05T17:31:22.834Z,3.70
2022-12-05T17:33:51.369Z,2.97
2022-12-05T17:36:22.178Z,2.83
2022-12-05T17:38:50.149Z,2.50
2022-12-05T17:41:19.446Z,3.00
2022-12-05T17:43:47.225Z,2.30
2022-12-05T17:46:16.964Z,2.30
2022-12-05T17:48:44.549Z,2.30
2022-12-05T17:51:14.259Z,2.20
2022-12-05T17:53:42.335Z,2.00
2022-12-05T17:56:09.905Z,1.92
2022-12-05T17:58:37.580Z,2.30
2022-12-05T18:01:05.257Z,2.63
2022-12-05T18:03:32.967Z,2.22
2022-12-05T18:06:03.660Z,2.35
2022-12-05T18:08:31.217Z,2.53
2022-12-05T18:11:00.910Z,2.47
2022-12-05T18:13:28.452Z,2.67
2022-12-05T18:15:59.287Z,2.70
2022-12-05T18:18:29.146Z,2.93
2022-12-05T18:21:07.108Z,2.67
2022-12-05T18:23:35.639Z,2.33
2022-12-05T18:26:03.470Z,2.58
2022-12-05T18:28:31.004Z,2.55
2022-12-05T18:31:24.801Z,2.25
2022-12-05T18:33:52.476Z,2.97
2022-12-05T18:36:20.996Z,3.03
2022-12-05T18:38:55.607Z,2.67
2022-12-05T18:41:23.818Z,2.92
2022-12-05T18:43:51.507Z,2.80
2022-12-05T18:46:19.118Z,3.05
2022-12-05T18:48:48.056Z,2.97
2022-12-05T18:51:21.153Z,2.70
2022-12-05T18:53:53.567Z,3.00
2022-12-05T18:56:24.332Z,3.33
2022-12-05T18:58:56.888Z,3.47
2022-12-05T19:01:25.426Z,3.92
2022-12-05T19:03:53.119Z,3.65
2022-12-05T19:06:21.503Z,3.22
2022-12-05T19:08:49.061Z,3.17
2022-12-05T19:11:17.713Z,3.00
2022-12-05T19:13:47.255Z,3.05
2022-12-05T19:16:19.552Z,3.15
2022-12-05T19:18:47.416Z,3.00
2022-12-05T19:21:14.999Z,2.85
2022-12-05T19:23:42.612Z,2.67
2022-12-05T19:26:10.439Z,2.53
2022-12-05T19:28:39.005Z,2.80
2022-12-05T19:31:10.760Z,2.97
2022-12-05T19:36:12.949Z,3.53
2022-12-05T19:38:41.405Z,3.17
2022-12-05T19:41:09.943Z,3.08
2022-12-05T19:43:38.222Z,2.60
2022-12-05T19:46:06.703Z,2.40
2022-12-05T19:48:34.637Z,2.80
2022-12-05T19:51:02.341Z,2.50
2022-12-05T19:53:30.941Z,2.70
2022-12-05T19:56:02.079Z,2.90
2022-12-05T19:58:32.017Z,2.92
2022-12-05T20:01:29.947Z,2.47
2022-12-05T20:03:59.103Z,2.25
2022-12-05T20:06:27.305Z,2.50
2022-12-05T20:08:54.925Z,2.33
2022-12-05T20:11:24.828Z,2.15
2022-12-05T20:13:54.491Z,2.30
2022-12-05T20:16:22.766Z,2.15
2022-12-05T20:18:50.897Z,2.78
2022-12-05T20:21:21.869Z,2.42
2022-12-05T20:23:49.698Z,2.13
2022-12-05T20:26:18.805Z,2.30
2022-12-05T20:28:46.443Z,2.13
2022-12-05T20:31:18.625Z,2.28
2022-12-05T20:33:46.253Z,2.20
2022-12-05T20:36:18.084Z,2.50
2022-12-05T20:38:46.375Z,2.50
2022-12-05T20:41:17.883Z,2.38
2022-12-05T20:43:46.255Z,2.30
2022-12-05T20:46:15.605Z,2.60
2022-12-05T20:48:43.917Z,2.40
2022-12-05T20:51:12.614Z,2.70
2022-12-05T20:53:40.982Z,2.13
2022-12-05T20:56:09.870Z,2.40
2022-12-05T20:58:37.770Z,2.53
2022-12-05T21:01:06.860Z,2.42
2022-12-05T21:03:34.956Z,2.50
2022-12-05T21:06:16.036Z,2.60
2022-12-05T21:08:43.947Z,2.57
2022-12-05T21:11:12.311Z,2.75
2022-12-05T21:13:40.319Z,2.40
2022-12-05T21:16:09.959Z,2.67
2022-12-05T21:18:37.733Z,2.58
2022-12-05T21:21:06.395Z,2.70
2022-12-05T21:23:34.684Z,2.60
2022-12-05T21:26:12.547Z,2.65
2022-12-05T21:28:40.529Z,2.67
2022-12-05T21:31:15.737Z,3.17
2022-12-05T21:33:44.028Z,3.58
2022-12-05T21:36:11.607Z,3.65
2022-12-05T21:38:39.238Z,3.05
2022-12-05T21:41:06.953Z,3.50
2022-12-05T21:43:35.181Z,3.50
2022-12-05T21:46:03.159Z,3.42
2022-12-05T21:48:30.773Z,3.58
2022-12-05T21:50:58.359Z,3.13
2022-12-05T21:53:26.012Z,3.50
2022-12-05T21:56:04.132Z,3.38
2022-12-05T21:58:31.939Z,3.40
2022-12-05T22:00:59.910Z,3.30
2022-12-05T22:03:27.687Z,3.47
2022-12-05T22:06:05.356Z,3.03
2022-12-05T22:08:33.400Z,3.22
2022-12-05T22:11:17.392Z,2.97
2022-12-05T22:13:45.091Z,3.08
2022-12-05T22:16:13.380Z,3.17
2022-12-05T22:18:41.293Z,3.35
2022-12-05T22:21:11.233Z,3.45
2022-12-05T22:23:39.111Z,3.22
2022-12-05T22:26:08.364Z,3.33
2022-12-05T22:28:36.435Z,2.88
2022-12-05T22:31:05.210Z,3.10
2022-12-05T22:33:35.404Z,3.00
2022-12-05T22:36:04.049Z,3.65
2022-12-05T22:38:33.689Z,3.22
2022-12-05T22:41:04.603Z,3.33
2022-12-05T22:43:33.316Z,3.20
2022-12-05T22:46:11.567Z,3.08
2022-12-05T22:48:39.749Z,3.03
2022-12-05T22:51:08.345Z,3.13
2022-12-05T22:53:36.867Z,3.22
2022-12-05T22:56:08.360Z,3.10
2022-12-05T22:58:36.380Z,3.03
2022-12-05T23:01:10.888Z,3.17
2022-12-05T23:03:38.907Z,3.03
2022-12-05T23:06:11.219Z,3.35
2022-12-05T23:08:40.229Z,2.90
2022-12-05T23:11:08.463Z,3.42
2022-12-05T23:13:36.601Z,3.50
2022-12-05T23:16:11.834Z,3.17
2022-12-05T23:18:48.605Z,3.60
2022-12-05T23:21:30.006Z,3.72
2022-12-05T23:23:59.682Z,4.13
2022-12-05T23:26:29.274Z,3.55
2022-12-05T23:28:57.099Z,4.15
2022-12-05T23:31:25.036Z,4.00
2022-12-05T23:33:52.706Z,4.40
2022-12-05T23:36:20.957Z,4.28
2022-12-05T23:38:48.574Z,4.63
2022-12-05T23:41:17.846Z,4.70
2022-12-05T23:43:45.394Z,4.20
2022-12-05T23:46:14.062Z,4.40
2022-12-05T23:48:41.853Z,4.05
2022-12-05T23:51:11.173Z,4.05
2022-12-05T23:53:39.592Z,3.80
2022-12-05T23:56:08.291Z,4.00
2022-12-05T23:58:36.187Z,4.28
